Time;durP1;ratioP1;P1;durP2;ratioP2;P2;SDS_P1;SDS_P2;PMS_P1;PMS_P2;Temp;Humidity;BMP_temperature;BMP_pressure;BME280_temperature;BME280_humidity;BME280_pressure;Samples;Min_cycle;Max_cycle;Signal;HPM_P1;HPM_P2
2024/02/08 00:00:32;;;;;;;16.40;8.65;;;;;;;;;;5038941;28;20045;-64
2024/02/08 00:02:59;;;;;;;16.55;9.45;;;;;;;;;;5054532;28;20053;-64
2024/02/08 00:05:26;;;;;;;17.90;9.02;;;;;;;;;;5054176;28;20518;-63
2024/02/08 00:07:53;;;;;;;19.23;9.10;;;;;;;;;;5054314;28;20052;-64
2024/02/08 00:10:21;;;;;;;15.20;9.13;;;;;;;;;;5054038;28;20424;-64
2024/02/08 00:12:50;;;;;;;21.17;10.88;;;;;;;;;;5054324;28;20060;-63
2024/02/08 00:15:17;;;;;;;19.15;10.38;;;;;;;;;;5053223;28;20049;-63
2024/02/08 00:17:46;;;;;;;18.08;10.00;;;;;;;;;;5054057;28;20412;-64
2024/02/08 00:20:15;;;;;;;17.38;9.35;;;;;;;;;;5054334;28;20064;-64
2024/02/08 00:22:43;;;;;;;18.38;9.85;;;;;;;;;;5054053;28;20048;-64
2024/02/08 00:25:09;;;;;;;15.10;8.75;;;;;;;;;;5054027;28;20434;-64
2024/02/08 00:27:36;;;;;;;15.82;8.70;;;;;;;;;;5053929;28;20057;-64
2024/02/08 00:30:05;;;;;;;14.38;8.95;;;;;;;;;;5054001;28;20055;-63
2024/02/08 00:32:32;;;;;;;14.63;8.67;;;;;;;;;;5034665;28;20468;-63
2024/02/08 00:35:03;;;;;;;14.27;8.85;;;;;;;;;;5033960;28;20053;-63
2024/02/08 00:37:31;;;;;;;16.52;9.27;;;;;;;;;;5034015;28;20413;-63
2024/02/08 00:39:57;;;;;;;18.27;9.90;;;;;;;;;;5033823;28;20072;-63
2024/02/08 00:42:24;;;;;;;16.38;9.80;;;;;;;;;;5033792;28;20053;-63
2024/02/08 00:44:51;;;;;;;18.27;10.63;;;;;;;;;;5043694;28;20069;-63
2024/02/08 00:47:19;;;;;;;19.10;10.48;;;;;;;;;;5039462;28;20049;-64
2024/02/08 00:49:48;;;;;;;19.20;10.98;;;;;;;;;;5033812;28;20073;-63
2024/02/08 00:52:18;;;;;;;18.85;10.15;;;;;;;;;;5033717;28;20072;-64
2024/02/08 00:54:45;;;;;;;19.75;11.30;;;;;;;;;;5033651;28;20057;-63
2024/02/08 00:57:11;;;;;;;16.77;10.43;;;;;;;;;;5033319;28;20057;-63
2024/02/08 00:59:38;;;;;;;22.45;11.23;;;;;;;;;;5033555;28;20068;-64
2024/02/08 01:02:05;;;;;;;20.60;11.43;;;;;;;;;;5033535;28;20060;-63
2024/02/08 01:04:34;;;;;;;19.63;10.25;;;;;;;;;;5033039;28;20057;-63
2024/02/08 01:07:01;;;;;;;21.20;10.88;;;;;;;;;;5033162;28;20054;-64
2024/02/08 01:09:27;;;;;;;20.42;12.18;;;;;;;;;;5032998;28;20080;-64
2024/02/08 01:11:54;;;;;;;20.08;11.05;;;;;;;;;;5032922;28;20053;-63
2024/02/08 01:14:21;;;;;;;19.35;11.27;;;;;;;;;;5033058;28;20554;-63
2024/02/08 01:16:50;;;;;;;20.63;12.07;;;;;;;;;;5033404;28;20061;-63
2024/02/08 01:19:16;;;;;;;20.98;12.35;;;;;;;;;;5033363;28;20404;-63
2024/02/08 01:21:44;;;;;;;22.70;11.50;;;;;;;;;;5033171;28;20052;-64
2024/02/08 01:24:11;;;;;;;16.42;11.13;;;;;;;;;;5033231;28;20653;-64
2024/02/08 01:26:38;;;;;;;20.10;11.32;;;;;;;;;;5032665;28;20064;-63
2024/02/08 01:29:06;;;;;;;18.60;11.50;;;;;;;;;;5032886;28;20049;-64
2024/02/08 01:31:37;;;;;;;16.73;10.32;;;;;;;;;;5033753;28;20064;-63
2024/02/08 01:34:05;;;;;;;19.27;11.32;;;;;;;;;;5052814;28;20499;-64
2024/02/08 01:36:32;;;;;;;23.67;11.70;;;;;;;;;;5052676;28;20053;-63
2024/02/08 01:39:00;;;;;;;17.27;10.30;;;;;;;;;;5052333;28;20492;-63
2024/02/08 01:41:27;;;;;;;16.25;10.20;;;;;;;;;;5052573;28;20053;-63
2024/02/08 01:43:57;;;;;;;20.55;9.85;;;;;;;;;;5052664;28;20056;-63
2024/02/08 01:46:23;;;;;;;20.33;11.23;;;;;;;;;;5052224;28;20057;-63
2024/02/08 01:48:50;;;;;;;21.85;12.38;;;;;;;;;;5033200;28;20061;-63
2024/02/08 01:51:17;;;;;;;20.77;11.43;;;;;;;;;;5032657;28;20457;-63
2024/02/08 01:53:44;;;;;;;20.58;11.10;;;;;;;;;;5032762;28;20049;-64
2024/02/08 01:56:12;;;;;;;23.42;10.77;;;;;;;;;;5032605;28;20412;-64
2024/02/08 01:58:41;;;;;;;18.50;10.88;;;;;;;;;;5032749;28;20057;-63
2024/02/08 02:01:09;;;;;;;20.05;10.73;;;;;;;;;;5032238;28;20057;-63
2024/02/08 02:03:36;;;;;;;24.27;11.63;;;;;;;;;;5032753;28;20393;-63
2024/02/08 02:06:08;;;;;;;18.42;11.75;;;;;;;;;;5032233;28;20057;-63
2024/02/08 02:08:35;;;;;;;17.27;10.20;;;;;;;;;;5032735;28;20053;-63
2024/02/08 02:11:06;;;;;;;20.00;10.82;;;;;;;;;;5032212;28;20053;-63
2024/02/08 02:13:35;;;;;;;19.67;11.45;;;;;;;;;;5035993;28;20057;-64
2024/02/08 02:16:03;;;;;;;18.35;11.02;;;;;;;;;;5039990;28;20412;-63
2024/02/08 02:18:31;;;;;;;20.02;11.20;;;;;;;;;;5047104;28;20057;-63
2024/02/08 02:20:58;;;;;;;18.95;10.82;;;;;;;;;;5038611;28;20068;-64
2024/02/08 02:23:27;;;;;;;19.80;10.88;;;;;;;;;;5038932;28;20491;-63
2024/02/08 02:25:54;;;;;;;17.90;11.38;;;;;;;;;;5038848;28;20366;-63
2024/02/08 02:28:21;;;;;;;17.38;10.65;;;;;;;;;;5038832;28;20400;-63
2024/02/08 02:30:48;;;;;;;20.65;11.35;;;;;;;;;;5038804;28;20412;-62
2024/02/08 02:33:16;;;;;;;22.17;11.20;;;;;;;;;;5038711;28;20488;-62
2024/02/08 02:35:48;;;;;;;18.65;10.77;;;;;;;;;;5038843;28;20064;-62
2024/02/08 02:38:15;;;;;;;18.30;10.88;;;;;;;;;;5039119;28;20407;-63
2024/02/08 02:40:43;;;;;;;19.02;11.38;;;;;;;;;;5038475;28;20068;-62
2024/02/08 02:43:11;;;;;;;17.75;11.07;;;;;;;;;;5038709;28;20056;-62
2024/02/08 02:45:38;;;;;;;18.38;11.23;;;;;;;;;;5055133;28;20059;-63
2024/02/08 02:48:05;;;;;;;18.15;10.85;;;;;;;;;;5051427;28;20053;-62
2024/02/08 02:50:32;;;;;;;18.58;10.95;;;;;;;;;;5038722;28;20416;-63
2024/02/08 02:52:59;;;;;;;16.90;9.90;;;;;;;;;;5038639;28;20069;-62
2024/02/08 02:55:27;;;;;;;18.33;11.00;;;;;;;;;;5038679;28;20050;-62
2024/02/08 02:57:57;;;;;;;20.40;11.43;;;;;;;;;;5038843;28;20057;-62
2024/02/08 03:00:25;;;;;;;18.33;11.57;;;;;;;;;;5037977;28;20068;-62
2024/02/08 03:02:52;;;;;;;19.33;10.88;;;;;;;;;;5045498;28;20052;-62
2024/02/08 03:05:20;;;;;;;21.75;11.60;;;;;;;;;;5038528;28;20060;-63
2024/02/08 03:07:48;;;;;;;15.55;10.77;;;;;;;;;;5038674;28;20053;-63
2024/02/08 03:10:15;;;;;;;22.17;11.82;;;;;;;;;;5038488;28;20064;-62
2024/02/08 03:12:42;;;;;;;20.25;11.45;;;;;;;;;;5038332;28;20057;-62
2024/02/08 03:15:10;;;;;;;20.00;11.23;;;;;;;;;;5038560;28;20412;-62
2024/02/08 03:17:39;;;;;;;18.30;9.85;;;;;;;;;;5038910;28;20061;-62
2024/02/08 03:20:08;;;;;;;18.03;10.87;;;;;;;;;;5038234;28;20053;-63
2024/02/08 03:22:35;;;;;;;16.45;10.75;;;;;;;;;;5038321;28;20499;-62
2024/02/08 03:25:04;;;;;;;18.60;10.93;;;;;;;;;;5035840;28;20053;-62
2024/02/08 03:27:33;;;;;;;15.67;10.10;;;;;;;;;;5035426;28;20065;-62
2024/02/08 03:29:59;;;;;;;16.58;10.02;;;;;;;;;;5035102;28;20053;-62
2024/02/08 03:32:28;;;;;;;21.10;11.52;;;;;;;;;;5035949;28;20064;-63
2024/02/08 03:34:54;;;;;;;18.52;10.98;;;;;;;;;;5035161;28;20053;-63
2024/02/08 03:37:21;;;;;;;19.77;10.85;;;;;;;;;;5035193;28;20591;-63
2024/02/08 03:39:48;;;;;;;18.13;11.00;;;;;;;;;;5034691;28;20057;-63
2024/02/08 03:42:16;;;;;;;19.90;10.63;;;;;;;;;;5034909;28;20056;-63
2024/02/08 03:44:43;;;;;;;18.70;11.38;;;;;;;;;;5034633;28;20061;-63
2024/02/08 03:47:12;;;;;;;24.10;12.07;;;;;;;;;;5034848;28;20058;-63
2024/02/08 03:49:49;;;;;;;20.75;12.43;;;;;;;;;;5035019;28;20049;-63
2024/02/08 03:52:18;;;;;;;17.90;11.05;;;;;;;;;;5034610;28;20046;-63
2024/02/08 03:54:45;;;;;;;23.17;13.43;;;;;;;;;;5034836;28;20060;-64
2024/02/08 03:57:12;;;;;;;19.33;10.90;;;;;;;;;;5034849;28;20403;-63
2024/02/08 03:59:40;;;;;;;16.23;9.70;;;;;;;;;;5034440;28;20060;-63
2024/02/08 04:02:09;;;;;;;18.77;10.95;;;;;;;;;;5034648;28;20068;-63
2024/02/08 04:04:49;;;;;;;14.37;9.73;;;;;;;;;;5034971;28;20080;-62
2024/02/08 04:07:21;;;;;;;16.15;10.20;;;;;;;;;;5034552;28;20480;-63
2024/02/08 04:09:56;;;;;;;17.42;10.73;;;;;;;;;;5034709;28;20518;-63
2024/02/08 04:53:38;;;;;;;20.88;13.65;;;;;;;;;;5034834;28;20087;-63
2024/02/08 04:56:08;;;;;;;24.10;13.52;;;;;;;;;;5033423;28;20494;-63
2024/02/08 04:58:35;;;;;;;;;;;;;;;;;;5034165;28;20053;-64
2024/02/08 05:01:02;;;;;;;22.80;12.23;;;;;;;;;;5046080;28;20368;-63
2024/02/08 05:03:30;;;;;;;23.55;11.57;;;;;;;;;;5033549;28;20056;-63
2024/02/08 05:05:57;;;;;;;18.70;12.20;;;;;;;;;;5050676;28;20053;-63
2024/02/08 05:08:24;;;;;;;20.48;12.70;;;;;;;;;;5053469;28;20064;-63
2024/02/08 05:10:52;;;;;;;22.02;12.60;;;;;;;;;;5053113;28;20434;-63
2024/02/08 05:13:24;;;;;;;17.02;12.82;;;;;;;;;;5053389;28;20368;-63
2024/02/08 05:15:51;;;;;;;19.98;12.75;;;;;;;;;;5052974;28;20079;-63
2024/02/08 05:18:21;;;;;;;19.55;12.95;;;;;;;;;;5033150;28;20053;-63
2024/02/08 05:20:49;;;;;;;23.67;14.20;;;;;;;;;;5047201;28;20064;-63
2024/02/08 05:23:15;;;;;;;23.88;13.95;;;;;;;;;;5053050;28;20053;-63
2024/02/08 05:25:44;;;;;;;21.00;13.93;;;;;;;;;;5052873;28;20056;-63
2024/02/08 05:28:12;;;;;;;26.05;15.45;;;;;;;;;;5052360;28;20053;-63
2024/02/08 05:30:41;;;;;;;17.98;12.77;;;;;;;;;;5047973;28;20052;-63
2024/02/08 05:33:08;;;;;;;18.70;11.85;;;;;;;;;;5042621;28;20372;-63
2024/02/08 05:35:35;;;;;;;17.13;12.45;;;;;;;;;;5050794;28;20053;-63
2024/02/08 05:38:02;;;;;;;21.65;13.00;;;;;;;;;;5052937;28;20060;-63
2024/02/08 05:40:31;;;;;;;20.23;12.00;;;;;;;;;;5052709;28;20053;-63
2024/02/08 05:42:58;;;;;;;17.25;12.23;;;;;;;;;;5052689;28;20372;-63
2024/02/08 05:45:30;;;;;;;20.70;12.60;;;;;;;;;;5052728;28;20057;-63
2024/02/08 05:48:06;;;;;;;18.90;12.65;;;;;;;;;;5052704;28;20052;-62
2024/02/08 05:50:33;;;;;;;18.23;13.07;;;;;;;;;;5050927;28;20056;-63
2024/02/08 05:53:06;;;;;;;19.25;11.05;;;;;;;;;;5052459;28;20072;-63
2024/02/08 05:55:34;;;;;;;16.92;10.50;;;;;;;;;;5052303;28;20052;-63
2024/02/08 05:58:03;;;;;;;16.48;9.65;;;;;;;;;;5052069;28;20052;-63
2024/02/08 06:00:36;;;;;;;14.77;9.65;;;;;;;;;;5033756;28;20060;-62
2024/02/08 06:03:05;;;;;;;21.50;12.98;;;;;;;;;;5033298;28;20057;-63
2024/02/08 06:05:32;;;;;;;19.73;13.77;;;;;;;;;;5045744;28;20053;-63
2024/02/08 06:07:59;;;;;;;25.45;14.57;;;;;;;;;;5046453;28;20076;-62
2024/02/08 06:10:41;;;;;;;22.48;14.05;;;;;;;;;;5044025;28;20045;-62
2024/02/08 06:13:13;;;;;;;21.10;12.70;;;;;;;;;;5040984;28;20053;-63
2024/02/08 06:15:42;;;;;;;22.48;12.13;;;;;;;;;;5040575;28;20049;-62
2024/02/08 06:18:13;;;;;;;;;;;;;;;;;;5040428;28;20049;-63
2024/02/08 06:20:43;;;;;;;17.10;11.13;;;;;;;;;;5052311;28;19920;-62
2024/02/08 06:23:22;;;;;;;15.82;9.80;;;;;;;;;;5043314;28;20052;-62
2024/02/08 06:26:27;;;;;;;15.45;10.88;;;;;;;;;;5036929;28;20062;-63
2024/02/08 06:28:48;;;;;;;12.43;9.65;;;;;;;;;;5032004;28;20049;-63
2024/02/08 06:31:15;;;;;;;15.13;9.55;;;;;;;;;;5040390;28;20053;-63
2024/02/08 06:34:08;;;;;;;17.05;11.35;;;;;;;;;;5045825;28;20049;-63
2024/02/08 06:36:33;;;;;;;18.00;12.05;;;;;;;;;;5031926;28;20405;-63
2024/02/08 06:39:20;;;;;;;19.85;12.55;;;;;;;;;;5032233;28;20049;-62
2024/02/08 06:41:52;;;;;;;22.83;13.52;;;;;;;;;;5032362;28;20060;-62
2024/02/08 07:41:54;;;;;;;19.85;13.77;;;;;;;;;;5040494;28;20060;-61
2024/02/08 07:44:22;;;;;;;19.70;14.63;;;;;;;;;;5034784;28;20052;-61
2024/02/08 07:46:49;;;;;;;20.15;13.10;;;;;;;;;;5035017;28;20045;-61
2024/02/08 07:49:17;;;;;;;16.00;12.18;;;;;;;;;;5035625;28;20056;-61
2024/02/08 07:51:49;;;;;;;16.52;12.45;;;;;;;;;;5035155;28;20392;-62
2024/02/08 07:54:20;;;;;;;19.30;12.50;;;;;;;;;;5034762;28;20054;-61
2024/02/08 07:56:47;;;;;;;20.77;13.80;;;;;;;;;;5039557;28;20053;-61
2024/02/08 07:59:26;;;;;;;19.48;12.98;;;;;;;;;;5051932;28;20530;-61
2024/02/08 08:01:53;;;;;;;18.83;12.23;;;;;;;;;;5034882;28;20053;-61
2024/02/08 08:07:01;;;;;;;16.33;11.07;;;;;;;;;;5034846;28;20053;-61
2024/02/08 08:09:27;;;;;;;21.20;12.25;;;;;;;;;;5034589;28;20053;-61
2024/02/08 08:11:55;;;;;;;22.00;11.88;;;;;;;;;;5034168;28;20072;-62
2024/02/08 08:17:30;;;;;;;16.38;11.23;;;;;;;;;;5047247;28;20067;-62
2024/02/08 08:20:04;;;;;;;16.45;11.18;;;;;;;;;;5052586;28;20484;-61
2024/02/08 08:25:28;;;;;;;18.70;13.30;;;;;;;;;;5060297;28;20424;-62
2024/02/08 08:28:09;;;;;;;16.25;12.27;;;;;;;;;;5054476;28;20052;-61
2024/02/08 08:30:39;;;;;;;17.75;12.38;;;;;;;;;;5054329;28;20483;-62
2024/02/08 08:33:08;;;;;;;17.48;12.55;;;;;;;;;;5054504;28;20057;-61
2024/02/08 08:35:45;;;;;;;14.70;11.30;;;;;;;;;;5048599;28;20042;-61
2024/02/08 08:38:29;;;;;;;17.60;12.40;;;;;;;;;;5034271;28;20054;-62
2024/02/08 08:41:06;;;;;;;17.02;11.98;;;;;;;;;;5034020;28;20060;-61
2024/02/08 08:43:34;;;;;;;16.23;12.15;;;;;;;;;;5034128;28;20060;-62
2024/02/08 08:46:09;;;;;;;16.58;12.55;;;;;;;;;;5033798;28;20049;-62
2024/02/08 08:48:36;;;;;;;17.15;13.18;;;;;;;;;;5034435;28;20057;-61
2024/02/08 08:51:10;;;;;;;18.90;13.18;;;;;;;;;;5040505;28;20065;-61
2024/02/08 08:53:43;;;;;;;21.15;14.13;;;;;;;;;;5034083;28;20053;-61
2024/02/08 08:56:10;;;;;;;19.85;14.05;;;;;;;;;;5033526;28;20394;-61
2024/02/08 08:58:39;;;;;;;21.10;13.75;;;;;;;;;;5035658;28;20485;-61
2024/02/08 09:01:18;;;;;;;16.95;13.32;;;;;;;;;;5053535;28;20060;-61
2024/02/08 09:03:45;;;;;;;16.95;13.02;;;;;;;;;;5053948;28;20076;-62
2024/02/08 09:06:13;;;;;;;18.13;12.85;;;;;;;;;;5046903;28;20497;-61
2024/02/08 09:08:43;;;;;;;18.95;12.35;;;;;;;;;;5033905;28;20057;-62
2024/02/08 09:11:12;;;;;;;16.00;13.10;;;;;;;;;;5033628;28;20053;-61
2024/02/08 09:13:40;;;;;;;;;;;;;;;;;;5034324;28;20053;-62
2024/02/08 09:19:04;;;;;;;15.05;10.88;;;;;;;;;;5039153;28;20069;-62
2024/02/08 09:21:32;;;;;;;14.07;10.65;;;;;;;;;;5034121;28;20057;-62
2024/02/08 09:23:58;;;;;;;46.95;25.52;;;;;;;;;;5032248;28;20515;-62
2024/02/08 09:26:25;;;;;;;33.35;20.48;;;;;;;;;;5032844;28;20064;-62
2024/02/08 09:29:00;;;;;;;29.48;19.00;;;;;;;;;;5032671;28;20496;-62
2024/02/08 09:31:38;;;;;;;21.50;16.70;;;;;;;;;;5032643;28;20083;-60
2024/02/08 09:34:14;;;;;;;15.20;11.20;;;;;;;;;;5032994;28;20060;-60
2024/02/08 09:36:43;;;;;;;14.65;10.57;;;;;;;;;;5032991;28;20492;-61
2024/02/08 09:39:15;;;;;;;15.77;11.68;;;;;;;;;;5032923;28;20064;-60
2024/02/08 09:41:44;;;;;;;14.15;10.95;;;;;;;;;;5032996;28;20064;-60
2024/02/08 09:44:11;;;;;;;17.50;14.10;;;;;;;;;;5032859;28;20054;-61
2024/02/08 09:46:56;;;;;;;13.90;11.80;;;;;;;;;;5032414;28;20074;-61
2024/02/08 09:49:34;;;;;;;13.38;10.73;;;;;;;;;;5034043;28;20053;-60
2024/02/08 09:52:14;;;;;;;12.75;10.02;;;;;;;;;;5050683;28;20052;-60
2024/02/08 09:54:46;;;;;;;15.32;8.85;;;;;;;;;;5049575;28;20484;-61
2024/02/08 09:57:22;;;;;;;10.73;8.13;;;;;;;;;;5051966;28;20403;-60
2024/02/08 10:02:36;;;;;;;11.35;8.20;;;;;;;;;;5052414;28;20049;-62
2024/02/08 10:08:02;;;;;;;10.27;7.68;;;;;;;;;;5040731;28;20141;-62
2024/02/08 10:10:29;;;;;;;14.35;10.20;;;;;;;;;;5031996;28;20431;-61
2024/02/08 10:13:05;;;;;;;12.48;8.40;;;;;;;;;;5032636;28;20045;-61
2024/02/08 10:15:39;;;;;;;12.80;8.80;;;;;;;;;;5032506;28;20046;-62
2024/02/08 10:18:10;;;;;;;12.05;8.35;;;;;;;;;;5032595;28;20049;-62
2024/02/08 10:20:45;;;;;;;11.93;7.30;;;;;;;;;;5032008;28;20053;-62
2024/02/08 10:28:42;;;;;;;10.63;7.53;;;;;;;;;;5053163;28;20056;-62
2024/02/08 10:31:12;;;;;;;9.77;6.95;;;;;;;;;;5052344;28;20056;-62
2024/02/08 10:33:47;;;;;;;8.80;6.70;;;;;;;;;;5052831;28;20064;-62
2024/02/08 10:36:18;;;;;;;10.27;7.13;;;;;;;;;;5056039;28;20057;-62
2024/02/08 10:38:55;;;;;;;9.63;7.10;;;;;;;;;;5040331;28;20057;-62
2024/02/08 10:41:28;;;;;;;11.25;7.28;;;;;;;;;;5036021;28;20060;-61
2024/02/08 10:43:57;;;;;;;10.77;7.15;;;;;;;;;;5036162;28;20500;-61
2024/02/08 10:46:31;;;;;;;10.70;7.72;;;;;;;;;;5035986;28;20057;-62
2024/02/08 10:49:00;;;;;;;9.13;6.90;;;;;;;;;;5035886;28;20057;-62
2024/02/08 10:51:29;;;;;;;10.90;7.35;;;;;;;;;;5054304;28;20053;-62
2024/02/08 10:54:05;;;;;;;11.02;7.53;;;;;;;;;;5053692;28;20060;-62
2024/02/08 10:56:44;;;;;;;12.02;7.60;;;;;;;;;;5055686;28;20056;-61
2024/02/08 10:59:13;;;;;;;8.52;6.53;;;;;;;;;;5055847;28;20057;-61
2024/02/08 11:02:00;;;;;;;9.90;7.23;;;;;;;;;;5055521;28;20044;-61
2024/02/08 11:04:29;;;;;;;7.70;6.50;;;;;;;;;;5055350;28;20416;-61
2024/02/08 11:07:06;;;;;;;8.20;6.68;;;;;;;;;;5055668;28;20052;-61
2024/02/08 11:09:34;;;;;;;6.72;5.82;;;;;;;;;;5038035;28;20053;-62
2024/02/08 11:12:04;;;;;;;9.27;6.07;;;;;;;;;;5035248;28;20054;-61
2024/02/08 11:14:34;;;;;;;7.70;5.80;;;;;;;;;;5035571;28;20049;-61
2024/02/08 11:17:05;;;;;;;8.55;6.20;;;;;;;;;;5035182;28;20081;-61
2024/02/08 11:19:39;;;;;;;8.63;6.28;;;;;;;;;;5035220;28;20087;-61
2024/02/08 11:22:24;;;;;;;8.90;6.15;;;;;;;;;;5035719;28;20054;-61
2024/02/08 11:24:57;;;;;;;8.35;6.22;;;;;;;;;;5036088;28;20485;-61
2024/02/08 11:27:27;;;;;;;7.78;5.88;;;;;;;;;;5035382;28;20068;-61
2024/02/08 11:29:57;;;;;;;8.10;6.35;;;;;;;;;;5035336;28;20053;-61
2024/02/08 11:32:24;;;;;;;6.70;5.55;;;;;;;;;;5035015;28;20057;-61
2024/02/08 11:34:54;;;;;;;9.85;6.55;;;;;;;;;;5035248;28;20057;-61
2024/02/08 11:37:29;;;;;;;9.25;6.75;;;;;;;;;;5035236;28;20056;-61
2024/02/08 11:39:59;;;;;;;9.63;6.50;;;;;;;;;;5051009;28;20072;-61
2024/02/08 11:42:31;;;;;;;11.27;7.22;;;;;;;;;;5054869;28;20056;-61
2024/02/08 11:45:00;;;;;;;8.27;5.93;;;;;;;;;;5054829;28;20052;-61
2024/02/08 11:47:27;;;;;;;9.35;6.10;;;;;;;;;;5054269;28;20060;-62
2024/02/08 11:50:00;;;;;;;28.00;12.88;;;;;;;;;;5054919;28;20507;-61
2024/02/08 11:52:27;;;;;;;25.63;12.27;;;;;;;;;;5055093;28;20049;-61
2024/02/08 11:55:02;;;;;;;13.63;7.90;;;;;;;;;;5039364;28;20053;-61
2024/02/08 11:57:36;;;;;;;7.85;5.55;;;;;;;;;;5034714;28;20480;-61
2024/02/08 12:00:15;;;;;;;13.48;8.00;;;;;;;;;;5034432;28;20060;-61
2024/02/08 12:02:47;;;;;;;12.43;7.35;;;;;;;;;;5034851;28;20065;-61
2024/02/08 12:05:19;;;;;;;16.42;8.80;;;;;;;;;;5034645;28;20056;-61
2024/02/08 12:07:46;;;;;;;10.52;6.43;;;;;;;;;;5035248;28;20061;-61
2024/02/08 12:10:15;;;;;;;9.82;6.00;;;;;;;;;;5048491;28;20071;-61
2024/02/08 12:12:45;;;;;;;8.90;5.70;;;;;;;;;;5054399;28;20053;-63
2024/02/08 12:15:12;;;;;;;10.30;6.47;;;;;;;;;;5054227;28;20041;-61
2024/02/08 12:17:41;;;;;;;9.23;6.07;;;;;;;;;;5054288;28;20057;-62
2024/02/08 12:20:10;;;;;;;9.52;6.30;;;;;;;;;;5054419;28;20061;-62
2024/02/08 12:22:41;;;;;;;8.55;6.00;;;;;;;;;;5054101;28;20064;-61
2024/02/08 12:25:15;;;;;;;8.70;6.22;;;;;;;;;;5052043;28;20052;-62
2024/02/08 12:27:48;;;;;;;11.65;6.00;;;;;;;;;;5035325;28;20057;-61
2024/02/08 12:30:21;;;;;;;11.20;7.63;;;;;;;;;;5034399;28;20481;-61
2024/02/08 12:32:50;;;;;;;7.82;6.68;;;;;;;;;;5034310;28;20080;-62
2024/02/08 12:35:18;;;;;;;;;;;;;;;;;;5034361;28;20045;-61
2024/02/08 12:37:47;;;;;;;13.73;8.48;;;;;;;;;;5033958;28;20272;-62
2024/02/08 12:40:15;;;;;;;11.35;8.18;;;;;;;;;;5034158;28;20057;-61
2024/02/08 12:42:42;;;;;;;41.08;23.00;;;;;;;;;;5033832;28;20057;-61
2024/02/08 12:45:10;;;;;;;25.75;14.50;;;;;;;;;;5033554;28;20542;-61
2024/02/08 12:47:39;;;;;;;10.57;8.25;;;;;;;;;;5034103;28;20397;-61
2024/02/08 12:50:08;;;;;;;7.97;6.20;;;;;;;;;;5041156;28;20053;-61
2024/02/08 12:52:35;;;;;;;8.30;5.53;;;;;;;;;;5053563;28;20052;-61
2024/02/08 12:55:03;;;;;;;8.60;5.82;;;;;;;;;;5045706;28;20060;-61
2024/02/08 12:57:31;;;;;;;7.20;5.43;;;;;;;;;;5032706;28;20057;-61
2024/02/08 13:00:01;;;;;;;6.95;5.30;;;;;;;;;;5033948;28;20061;-61
2024/02/08 13:02:33;;;;;;;7.03;5.60;;;;;;;;;;5033917;28;20058;-62
2024/02/08 13:05:01;;;;;;;7.80;5.68;;;;;;;;;;5033648;28;20390;-61
2024/02/08 13:07:28;;;;;;;9.20;5.70;;;;;;;;;;5038964;28;20045;-61
2024/02/08 13:10:01;;;;;;;8.32;5.10;;;;;;;;;;5049298;28;20049;-61
2024/02/08 13:12:29;;;;;;;8.48;5.82;;;;;;;;;;5037465;28;20049;-61
2024/02/08 13:15:02;;;;;;;8.15;5.95;;;;;;;;;;5033602;28;20053;-61
2024/02/08 13:17:32;;;;;;;8.10;6.28;;;;;;;;;;5033072;28;20054;-61
2024/02/08 13:20:11;;;;;;;7.90;6.32;;;;;;;;;;5033163;28;20053;-61
2024/02/08 13:22:38;;;;;;;8.43;6.30;;;;;;;;;;5033458;28;20060;-61
2024/02/08 13:25:11;;;;;;;8.38;7.18;;;;;;;;;;5033488;28;20053;-61
2024/02/08 13:27:40;;;;;;;8.75;6.85;;;;;;;;;;5042593;28;20045;-61
2024/02/08 13:30:14;;;;;;;11.02;7.93;;;;;;;;;;5053197;28;20059;-61
2024/02/08 13:32:42;;;;;;;7.47;6.07;;;;;;;;;;5053004;28;20064;-61
2024/02/08 13:35:09;;;;;;;7.63;6.35;;;;;;;;;;5052858;28;20057;-61
2024/02/08 13:37:37;;;;;;;8.93;6.95;;;;;;;;;;5052542;28;20056;-61
2024/02/08 13:40:05;;;;;;;9.35;7.05;;;;;;;;;;5051505;28;20069;-62
2024/02/08 13:42:32;;;;;;;8.10;6.68;;;;;;;;;;5032781;28;20396;-61
2024/02/08 13:45:01;;;;;;;15.85;9.15;;;;;;;;;;5032982;28;20416;-61
2024/02/08 13:47:28;;;;;;;18.00;9.65;;;;;;;;;;5032641;28;20045;-61
2024/02/08 13:49:55;;;;;;;22.70;12.35;;;;;;;;;;5038472;28;20064;-61
2024/02/08 13:52:25;;;;;;;10.10;7.95;;;;;;;;;;5052817;28;20059;-62
2024/02/08 13:54:52;;;;;;;12.38;8.75;;;;;;;;;;5052463;28;20060;-60
2024/02/08 13:57:19;;;;;;;9.32;7.28;;;;;;;;;;5033896;28;20045;-59
2024/02/08 13:59:48;;;;;;;9.05;7.72;;;;;;;;;;5032816;28;20454;-60
2024/02/08 14:02:17;;;;;;;50.05;28.10;;;;;;;;;;5032766;28;20057;-60
2024/02/08 14:04:49;;;;;;;23.33;14.88;;;;;;;;;;5032785;28;20054;-60
2024/02/08 14:07:17;;;;;;;14.05;9.90;;;;;;;;;;5032528;28;20053;-60
2024/02/08 14:09:45;;;;;;;12.35;10.27;;;;;;;;;;5039910;28;20048;-60
2024/02/08 14:12:12;;;;;;;18.23;15.20;;;;;;;;;;5037455;28;20420;-61
2024/02/08 14:14:42;;;;;;;18.33;15.25;;;;;;;;;;5032694;28;20060;-60
2024/02/08 14:17:10;;;;;;;15.15;12.52;;;;;;;;;;5032071;28;20050;-60
2024/02/08 14:19:42;;;;;;;12.87;10.40;;;;;;;;;;5032650;28;20046;-60
2024/02/08 14:22:10;;;;;;;11.18;9.85;;;;;;;;;;5032620;28;20489;-60
2024/02/08 14:24:38;;;;;;;20.83;16.10;;;;;;;;;;5032127;28;20053;-60
2024/02/08 14:27:06;;;;;;;20.07;14.97;;;;;;;;;;5043582;28;20061;-60
2024/02/08 14:29:35;;;;;;;9.60;8.60;;;;;;;;;;5051981;28;20057;-60
2024/02/08 14:32:04;;;;;;;9.13;8.07;;;;;;;;;;5052122;28;20053;-60
2024/02/08 14:34:35;;;;;;;8.20;7.35;;;;;;;;;;5052170;28;20079;-60
2024/02/08 14:37:05;;;;;;;9.88;7.43;;;;;;;;;;5052177;28;20049;-60
2024/02/08 14:39:33;;;;;;;10.35;8.45;;;;;;;;;;5052044;28;20056;-61
2024/02/08 14:42:01;;;;;;;8.95;8.05;;;;;;;;;;5042881;28;20408;-60
2024/02/08 14:44:40;;;;;;;10.43;8.45;;;;;;;;;;5032329;28;20416;-60
2024/02/08 14:47:07;;;;;;;9.93;8.18;;;;;;;;;;5032307;28;20054;-61
2024/02/08 14:49:54;;;;;;;8.10;7.10;;;;;;;;;;5035129;28;20045;-61
2024/02/08 14:52:26;;;;;;;8.50;7.40;;;;;;;;;;5052341;28;20074;-60
2024/02/08 14:54:58;;;;;;;10.05;7.63;;;;;;;;;;5052159;28;20075;-61
2024/02/08 14:57:26;;;;;;;9.25;8.18;;;;;;;;;;5040535;28;20049;-61
2024/02/08 15:00:49;;;;;;;9.82;8.63;;;;;;;;;;5032176;28;20500;-61
2024/02/08 15:02:43;;;;;;;9.02;8.13;;;;;;;;;;5032075;28;20054;-60
2024/02/08 15:05:12;;;;;;;10.57;8.85;;;;;;;;;;5032005;28;20156;-61
2024/02/08 15:07:51;;;;;;;10.88;9.32;;;;;;;;;;5031876;28;20053;-61
2024/02/08 15:10:20;;;;;;;12.80;10.70;;;;;;;;;;5031718;28;20053;-61
2024/02/08 15:12:53;;;;;;;9.82;8.80;;;;;;;;;;5031934;28;20056;-61
2024/02/08 15:15:29;;;;;;;12.15;9.80;;;;;;;;;;5032148;28;20049;-61
2024/02/08 15:18:10;;;;;;;9.88;8.63;;;;;;;;;;5031753;28;20057;-61
2024/02/08 15:20:43;;;;;;;10.20;8.70;;;;;;;;;;5031970;28;20049;-61
2024/02/08 15:23:11;;;;;;;10.80;8.57;;;;;;;;;;5035510;28;20072;-61
2024/02/08 15:25:44;;;;;;;14.15;10.07;;;;;;;;;;5035341;28;20050;-61
2024/02/08 15:28:31;;;;;;;14.25;10.60;;;;;;;;;;5046852;28;20060;-61
2024/02/08 15:31:11;;;;;;;14.07;10.73;;;;;;;;;;5054213;28;20079;-60
2024/02/08 15:33:55;;;;;;;20.55;13.65;;;;;;;;;;5055727;28;20049;-61
2024/02/08 15:36:31;;;;;;;18.90;12.27;;;;;;;;;;5055578;28;20068;-61
2024/02/08 15:41:51;;;;;;;13.57;10.18;;;;;;;;;;5055256;28;20068;-60
2024/02/08 15:44:19;;;;;;;15.88;10.32;;;;;;;;;;5035573;28;20057;-61
2024/02/08 15:46:49;;;;;;;16.02;11.30;;;;;;;;;;5035090;28;20469;-60
2024/02/08 15:49:16;;;;;;;19.35;11.45;;;;;;;;;;5035138;28;20076;-61
2024/02/08 15:51:49;;;;;;;18.27;12.80;;;;;;;;;;5054834;28;20057;-61
2024/02/08 15:54:23;;;;;;;15.13;11.48;;;;;;;;;;5042832;28;20057;-61
2024/02/08 15:56:53;;;;;;;12.32;10.10;;;;;;;;;;5034882;28;20045;-60
2024/02/08 15:59:22;;;;;;;14.43;10.10;;;;;;;;;;5052005;28;20049;-61
2024/02/08 16:01:49;;;;;;;11.75;9.68;;;;;;;;;;5054760;28;20052;-60
2024/02/08 16:04:44;;;;;;;13.38;9.93;;;;;;;;;;5054598;28;20048;-61
2024/02/08 16:07:11;;;;;;;11.02;9.70;;;;;;;;;;5054604;28;20061;-60
2024/02/08 16:09:40;;;;;;;12.00;9.75;;;;;;;;;;5054736;28;20049;-60
2024/02/08 16:12:22;;;;;;;12.38;9.63;;;;;;;;;;5054443;28;20064;-60
2024/02/08 16:14:50;;;;;;;13.73;9.70;;;;;;;;;;5053491;28;20444;-60
2024/02/08 16:20:05;;;;;;;12.00;10.65;;;;;;;;;;5060319;28;20060;-60
2024/02/08 16:22:47;;;;;;;20.20;11.95;;;;;;;;;;5054332;28;20056;-61
2024/02/08 16:25:19;;;;;;;16.10;11.85;;;;;;;;;;5054550;28;20059;-60
2024/02/08 16:27:48;;;;;;;13.90;9.90;;;;;;;;;;5052380;28;20056;-60
2024/02/08 16:30:28;;;;;;;11.00;9.18;;;;;;;;;;5034320;28;20050;-60
2024/02/08 16:32:56;;;;;;;12.48;11.18;;;;;;;;;;5034147;28;20057;-61
2024/02/08 16:35:57;;;;;;;10.73;9.30;;;;;;;;;;5036095;28;20060;-61
2024/02/08 16:38:27;;;;;;;10.95;9.43;;;;;;;;;;5054046;28;20044;-61
2024/02/08 16:40:56;;;;;;;;;;;;;;;;;;5054608;28;20060;-60
2024/02/08 16:43:32;;;;;;;11.18;8.75;;;;;;;;;;5049142;28;20372;-60
2024/02/08 16:46:05;;;;;;;10.35;8.75;;;;;;;;;;5044712;28;20057;-60
2024/02/08 16:48:35;;;;;;;11.40;9.77;;;;;;;;;;5051084;28;20384;-60
2024/02/08 16:51:09;;;;;;;12.82;10.77;;;;;;;;;;5048686;28;20057;-61